Time;durP1;ratioP1;P1;durP2;ratioP2;P2;SDS_P1;SDS_P2;PMS_P1;PMS_P2;Temp;Humidity;BMP_temperature;BMP_pressure;BME280_temperature;BME280_humidity;BME280_pressure;Samples;Min_cycle;Max_cycle;Signal;HPM_P1;HPM_P2
2021/10/07 06:34:46;;;;;;;9.52;2.17;;;17.20;68.40;;;;;;4808841;29;20054;-71
2021/10/07 06:37:11;;;;;;;7.00;1.52;;;17.10;68.50;;;;;;4825876;29;20062;-69
2021/10/07 06:39:37;;;;;;;12.18;1.58;;;17.10;68.60;;;;;;4801381;29;20062;-68
2021/10/07 06:42:03;;;;;;;7.57;1.50;;;17.20;68.90;;;;;;4810890;29;20062;-68
2021/10/07 06:44:29;;;;;;;4.03;1.60;;;17.10;68.40;;;;;;4810438;29;20047;-73
2021/10/07 06:46:54;;;;;;;6.35;1.20;;;17.10;68.40;;;;;;4810721;29;20123;-71
2021/10/07 06:49:20;;;;;;;7.28;1.60;;;17.00;68.40;;;;;;4793533;29;20063;-70
2021/10/07 06:51:46;;;;;;;4.38;1.17;;;17.00;68.50;;;;;;4810268;29;20061;-74
2021/10/07 06:54:12;;;;;;;3.42;1.27;;;17.00;68.90;;;;;;4810753;29;20051;-74
2021/10/07 06:56:37;;;;;;;6.35;1.35;;;17.00;69.10;;;;;;4810669;29;20138;-74
2021/10/07 06:59:04;;;;;;;3.17;0.93;;;17.00;69.20;;;;;;4810034;29;20047;-75
2021/10/07 07:01:30;;;;;;;6.00;1.70;;;16.90;69.30;;;;;;4792611;29;20579;-75
2021/10/07 07:03:58;;;;;;;12.15;1.85;;;16.90;68.60;;;;;;4792578;30;20055;-74
2021/10/07 07:06:26;;;;;;;8.80;2.60;;;16.70;68.20;;;;;;4792633;30;20138;-73
2021/10/07 07:08:52;;;;;;;14.60;2.85;;;16.50;67.90;;;;;;4810549;29;20051;-74
2021/10/07 07:11:18;;;;;;;14.27;3.28;;;16.40;68.60;;;;;;4809743;29;20046;-73
2021/10/07 07:13:44;;;;;;;12.35;2.95;;;16.40;69.30;;;;;;4810468;29;20061;-73
2021/10/07 07:16:11;;;;;;;20.60;3.17;;;16.30;69.70;;;;;;4810806;29;20051;-73
2021/10/07 07:18:37;;;;;;;27.52;4.90;;;16.30;70.10;;;;;;4810518;29;20147;-73
2021/10/07 07:21:03;;;;;;;12.25;2.95;;;16.20;70.60;;;;;;4796005;29;20125;-73
2021/10/07 07:23:29;;;;;;;8.23;2.55;;;16.20;70.80;;;;;;4793073;29;20528;-72
2021/10/07 07:25:55;;;;;;;11.23;2.70;;;16.20;70.80;;;;;;4798507;29;20061;-72
2021/10/07 07:28:21;;;;;;;20.10;3.50;;;16.20;69.90;;;;;;4810437;29;20121;-72
2021/10/07 07:31:21;;;;;;;12.82;2.40;;;16.20;70.10;;;;;;4808605;29;20050;-81
2021/10/07 07:33:47;;;;;;;10.18;3.10;;;16.20;69.90;;;;;;4805502;29;20403;-71
2021/10/07 07:36:17;;;;;;;6.10;2.78;;;16.30;69.90;;;;;;4789700;29;20188;-74
2021/10/07 07:38:44;;;;;;;6.88;2.92;;;16.30;69.40;;;;;;4783767;30;20098;-72
2021/10/07 07:41:11;;;;;;;7.65;2.58;;;16.40;69.20;;;;;;4791361;30;20047;-74
2021/10/07 07:43:41;;;;;;;5.07;2.80;;;16.40;69.10;;;;;;4788742;30;20102;-73
2021/10/07 07:46:07;;;;;;;6.78;2.90;;;16.40;69.10;;;;;;4782775;30;20051;-72
2021/10/07 07:48:33;;;;;;;5.72;2.58;;;16.40;68.80;;;;;;4784062;30;20051;-73
2021/10/07 07:50:59;;;;;;;5.38;2.70;;;16.40;68.60;;;;;;4775854;30;20082;-74
2021/10/07 07:53:25;;;;;;;4.40;2.58;;;16.50;68.50;;;;;;4775888;30;20051;-74
2021/10/07 07:55:51;;;;;;;5.60;2.50;;;16.50;68.50;;;;;;4787803;30;20113;-74
2021/10/07 07:58:18;;;;;;;3.72;2.40;;;16.50;68.60;;;;;;4773966;30;20540;-73
2021/10/07 08:00:45;;;;;;;6.18;2.95;;;16.50;68.30;;;;;;4790987;30;20468;-72
2021/10/07 08:03:11;;;;;;;4.63;2.90;;;16.50;68.10;;;;;;4790092;30;20126;-71
2021/10/07 08:05:36;;;;;;;6.80;2.85;;;16.60;67.90;;;;;;4791605;30;20134;-70
2021/10/07 08:08:03;;;;;;;12.23;3.60;;;16.60;67.70;;;;;;4790567;30;20112;-70
2021/10/07 08:10:28;;;;;;;9.40;3.47;;;16.60;67.70;;;;;;4791481;30;20065;-71
2021/10/07 08:12:54;;;;;;;6.88;4.47;;;16.60;67.70;;;;;;4786934;30;20051;-70
2021/10/07 08:15:20;;;;;;;10.25;4.32;;;16.60;67.50;;;;;;4770304;30;20048;-69
2021/10/07 08:17:46;;;;;;;6.70;4.50;;;16.70;67.60;;;;;;4784209;30;20066;-71
2021/10/07 08:20:14;;;;;;;7.20;5.03;;;16.70;67.70;;;;;;4787591;30;20105;-69
2021/10/07 08:22:40;;;;;;;6.45;4.72;;;16.70;67.80;;;;;;4783278;30;20475;-73
2021/10/07 08:25:08;;;;;;;6.35;4.07;;;16.70;68.00;;;;;;4773572;30;20058;-72
2021/10/07 08:27:34;;;;;;;7.28;4.20;;;16.80;68.10;;;;;;4773626;30;20059;-71
2021/10/07 08:30:00;;;;;;;7.57;4.32;;;16.70;68.10;;;;;;4784143;30;20139;-73
2021/10/07 08:32:26;;;;;;;5.80;3.53;;;16.80;68.10;;;;;;4784835;30;20131;-69
2021/10/07 08:34:51;;;;;;;7.72;3.60;;;16.80;68.10;;;;;;4783917;30;20067;-69
2021/10/07 08:37:17;;;;;;;6.13;3.50;;;16.70;68.40;;;;;;4791216;30;20055;-69
2021/10/07 08:39:43;;;;;;;6.20;3.20;;;16.70;68.90;;;;;;4791115;30;20059;-70
2021/10/07 08:42:09;;;;;;;3.53;2.75;;;16.60;69.30;;;;;;4774893;30;20134;-70
2021/10/07 08:44:35;;;;;;;3.92;3.10;;;16.60;69.50;;;;;;4790973;30;20066;-70
2021/10/07 08:47:00;;;;;;;3.65;2.50;;;16.60;69.80;;;;;;4774742;30;20063;-69
2021/10/07 08:49:32;;;;;;;5.40;2.92;;;16.50;70.00;;;;;;4790660;29;20051;-69
2021/10/07 08:51:58;;;;;;;3.50;2.85;;;16.50;70.20;;;;;;4790664;30;20062;-69
2021/10/07 08:54:24;;;;;;;4.32;2.72;;;16.50;70.40;;;;;;4790958;30;20051;-69
2021/10/07 08:56:51;;;;;;;3.80;2.35;;;16.50;70.50;;;;;;4791232;30;20437;-69
2021/10/07 08:59:18;;;;;;;4.05;2.25;;;16.50;70.60;;;;;;4790852;30;20097;-69
2021/10/07 09:01:46;;;;;;;2.42;1.88;;;16.50;70.70;;;;;;4790712;30;20348;-69
2021/10/07 09:04:21;;;;;;;5.82;2.40;;;16.50;70.70;;;;;;4790642;30;20062;-69
2021/10/07 09:06:49;;;;;;;4.85;2.30;;;16.50;70.80;;;;;;4790744;30;20098;-69
2021/10/07 09:09:15;;;;;;;5.85;2.25;;;16.50;70.90;;;;;;4790760;30;20134;-69
2021/10/07 09:11:41;;;;;;;3.35;2.40;;;16.50;71.00;;;;;;4790716;30;20138;-69
2021/10/07 09:14:09;;;;;;;6.43;2.53;;;16.50;71.20;;;;;;4790427;30;20130;-69
2021/10/07 09:16:45;;;;;;;3.45;2.13;;;16.50;71.30;;;;;;4790816;30;20074;-69
2021/10/07 09:19:13;;;;;;;3.40;2.30;;;16.50;71.50;;;;;;4790513;30;20082;-69
2021/10/07 09:21:39;;;;;;;3.90;2.38;;;16.40;71.50;;;;;;4790564;30;20051;-69
2021/10/07 09:24:29;;;;;;;5.53;2.20;;;16.50;71.60;;;;;;4790027;30;20047;-69
2021/10/07 09:27:03;;;;;;;3.97;2.13;;;16.50;71.60;;;;;;4790413;30;20082;-69
2021/10/07 09:29:52;;;;;;;3.40;2.30;;;16.50;71.80;;;;;;4790086;30;20059;-69
2021/10/07 09:32:30;;;;;;;3.55;2.20;;;16.50;71.90;;;;;;4790227;30;20055;-69
2021/10/07 09:34:59;;;;;;;3.70;2.30;;;16.50;71.90;;;;;;4790460;29;20475;-69
2021/10/07 09:37:29;;;;;;;3.20;2.00;;;16.50;71.90;;;;;;4790126;30;20066;-70
2021/10/07 09:40:02;;;;;;;5.18;2.28;;;16.50;72.00;;;;;;4790916;30;20063;-69
2021/10/07 09:42:35;;;;;;;3.40;2.47;;;16.50;72.00;;;;;;4786240;30;20122;-69
2021/10/07 09:45:06;;;;;;;2.67;1.70;;;16.50;72.00;;;;;;4772471;30;20059;-71
2021/10/07 09:47:40;;;;;;;4.78;2.00;;;16.60;72.10;;;;;;4771748;30;20044;-69
2021/10/07 09:50:13;;;;;;;3.35;2.00;;;16.50;72.10;;;;;;4772456;30;20062;-69
2021/10/07 09:52:41;;;;;;;3.03;1.85;;;16.50;72.20;;;;;;4775715;30;20456;-68
2021/10/07 09:55:31;;;;;;;3.45;2.13;;;16.50;72.20;;;;;;4789846;30;20131;-70
2021/10/07 09:58:00;;;;;;;3.65;2.03;;;16.60;72.20;;;;;;4790259;30;20051;-69
2021/10/07 10:00:31;;;;;;;2.83;1.60;;;16.50;72.30;;;;;;4789552;30;20108;-69
2021/10/07 10:02:59;;;;;;;3.40;2.25;;;16.60;72.40;;;;;;4778921;30;20048;-69
2021/10/07 10:05:26;;;;;;;2.45;1.65;;;16.50;72.30;;;;;;4772250;30;20448;-69
2021/10/07 10:07:51;;;;;;;2.85;1.75;;;16.50;72.40;;;;;;4772399;30;20051;-69
2021/10/07 10:10:18;;;;;;;3.58;1.80;;;16.60;72.40;;;;;;4771900;30;20558;-69
2021/10/07 10:12:44;;;;;;;3.15;1.50;;;16.60;72.40;;;;;;4780324;30;20047;-68
2021/10/07 10:15:11;;;;;;;3.45;1.90;;;16.60;72.40;;;;;;4790023;30;20077;-69
2021/10/07 10:17:37;;;;;;;4.93;2.92;;;16.60;72.40;;;;;;4789997;30;20052;-69
2021/10/07 10:20:23;;;;;;;4.72;3.97;;;16.70;71.90;;;;;;4790631;30;20077;-68
2021/10/07 10:23:01;;;;;;;5.68;4.97;;;16.80;71.20;;;;;;4781483;30;20059;-68
2021/10/07 10:25:29;;;;;;;6.22;4.75;;;16.80;70.80;;;;;;4771803;30;20104;-69
2021/10/07 10:27:59;;;;;;;7.28;4.45;;;16.70;70.80;;;;;;4771943;30;20056;-71
2021/10/07 10:30:28;;;;;;;5.28;4.70;;;16.70;70.90;;;;;;4771897;30;20123;-69
2021/10/07 10:32:57;;;;;;;8.18;4.53;;;16.70;71.10;;;;;;4779472;30;20059;-69
2021/10/07 10:35:39;;;;;;;13.98;4.25;;;16.60;71.20;;;;;;4789123;29;20066;-75
2021/10/07 10:38:10;;;;;;;5.18;4.18;;;16.60;71.40;;;;;;4789659;30;20340;-73
2021/10/07 10:40:37;;;;;;;6.57;3.75;;;16.70;71.80;;;;;;4789678;30;20048;-72
2021/10/07 10:43:18;;;;;;;4.63;3.33;;;16.70;71.70;;;;;;4765745;30;20063;-71
2021/10/07 10:45:51;;;;;;;4.65;3.50;;;16.70;71.60;;;;;;4771938;30;20059;-72
2021/10/07 10:48:53;;;;;;;4.28;3.83;;;16.80;71.60;;;;;;4756656;30;20048;-72
2021/10/07 10:51:19;;;;;;;3.65;2.80;;;16.80;71.70;;;;;;4771769;30;20048;-69
2021/10/07 10:54:08;;;;;;;4.93;2.70;;;16.80;71.60;;;;;;4784136;30;20066;-69
2021/10/07 10:56:40;;;;;;;4.38;2.47;;;16.80;71.80;;;;;;4789419;30;20359;-69
2021/10/07 10:59:20;;;;;;;4.80;2.80;;;16.70;72.00;;;;;;4789433;30;20398;-69
2021/10/07 11:02:19;;;;;;;2.60;2.03;;;16.70;72.50;;;;;;4773828;30;20459;-68
2021/10/07 11:04:49;;;;;;;2.60;2.05;;;16.70;72.50;;;;;;4771488;30;20052;-68
2021/10/07 11:07:29;;;;;;;4.32;1.85;;;16.60;72.70;;;;;;4771375;30;20059;-69
2021/10/07 11:10:11;;;;;;;3.65;1.80;;;16.60;72.80;;;;;;4771347;30;20051;-69
2021/10/07 11:12:52;;;;;;;2.63;1.83;;;16.60;72.90;;;;;;4777414;30;20039;-69
2021/10/07 11:15:20;;;;;;;4.15;2.13;;;16.60;73.00;;;;;;4792507;30;20111;-68
2021/10/07 11:17:47;;;;;;;3.28;1.60;;;16.60;73.00;;;;;;4792609;30;20059;-69
2021/10/07 11:20:22;;;;;;;4.25;1.60;;;16.60;73.10;;;;;;4791202;30;20055;-69
2021/10/07 11:23:16;;;;;;;4.28;1.40;;;16.60;73.00;;;;;;4774579;30;20463;-69
2021/10/07 11:25:50;;;;;;;4.70;1.52;;;16.70;73.00;;;;;;4774161;30;20128;-68
2021/10/07 11:28:23;;;;;;;2.33;1.48;;;16.60;72.90;;;;;;4775146;30;20124;-69
2021/10/07 11:30:49;;;;;;;1.95;1.40;;;16.70;73.00;;;;;;4774829;30;20066;-69
2021/10/07 11:33:15;;;;;;;2.05;1.02;;;16.70;72.90;;;;;;4774727;30;20056;-69
2021/10/07 11:35:41;;;;;;;3.28;1.17;;;16.70;72.90;;;;;;4790597;30;20134;-68
2021/10/07 11:38:14;;;;;;;2.25;0.90;;;16.70;72.90;;;;;;4792167;30;20059;-69
2021/10/07 11:40:42;;;;;;;2.60;0.90;;;16.70;72.70;;;;;;4776628;30;20571;-69
2021/10/07 11:43:37;;;;;;;3.35;0.80;;;16.70;72.80;;;;;;4776298;30;20068;-68
2021/10/07 11:46:12;;;;;;;3.50;1.00;;;16.70;72.50;;;;;;4790485;30;20070;-69
2021/10/07 11:48:44;;;;;;;1.55;0.93;;;16.70;72.70;;;;;;4791869;30;20137;-68
2021/10/07 11:51:11;;;;;;;2.92;0.90;;;16.70;72.70;;;;;;4791106;30;20067;-69
2021/10/07 11:53:37;;;;;;;1.95;0.70;;;16.80;72.80;;;;;;4791952;30;20054;-68
2021/10/07 11:56:09;;;;;;;1.67;0.80;;;16.70;72.70;;;;;;4792106;30;20085;-69
2021/10/07 11:58:35;;;;;;;4.85;0.90;;;16.80;72.70;;;;;;4792138;30;20376;-68
2021/10/07 12:01:01;;;;;;;2.88;0.85;;;16.80;72.70;;;;;;4776737;30;20070;-68
2021/10/07 12:03:28;;;;;;;1.73;0.63;;;16.80;72.70;;;;;;4791339;30;20055;-68
2021/10/07 12:05:59;;;;;;;2.47;0.90;;;16.80;72.70;;;;;;4792072;30;20063;-69
2021/10/07 12:08:28;;;;;;;2.92;0.85;;;16.80;72.60;;;;;;4792425;30;20051;-68
2021/10/07 12:10:56;;;;;;;1.27;0.70;;;16.80;72.60;;;;;;4791862;30;20051;-69
2021/10/07 12:13:25;;;;;;;1.67;0.80;;;16.80;72.60;;;;;;4791175;30;20454;-68
2021/10/07 12:15:59;;;;;;;1.95;0.80;;;16.80;72.60;;;;;;4791398;30;20066;-68
2021/10/07 12:18:26;;;;;;;3.13;0.80;;;16.80;72.70;;;;;;4792127;30;20136;-69
2021/10/07 12:21:09;;;;;;;3.40;1.08;;;16.80;72.70;;;;;;4792341;30;20367;-68
2021/10/07 12:24:08;;;;;;;1.58;0.80;;;16.80;72.50;;;;;;4790779;29;20059;-69
2021/10/07 12:26:49;;;;;;;2.88;0.60;;;16.90;72.50;;;;;;4752555;30;20071;-69
2021/10/07 12:29:32;;;;;;;0.80;0.43;;;16.80;72.50;;;;;;4791656;30;20055;-69
2021/10/07 12:32:10;;;;;;;1.07;0.70;;;16.80;72.50;;;;;;4775297;30;20059;-69
2021/10/07 12:34:41;;;;;;;1.45;0.63;;;16.80;72.50;;;;;;4780809;30;20067;-69
2021/10/07 12:37:10;;;;;;;1.75;0.60;;;16.90;72.60;;;;;;4791076;30;20043;-69
2021/10/07 12:39:41;;;;;;;0.98;0.40;;;16.90;72.60;;;;;;4791245;30;20055;-68
2021/10/07 12:42:12;;;;;;;1.45;0.60;;;16.90;72.60;;;;;;4790849;30;20047;-69
2021/10/07 12:44:43;;;;;;;1.02;0.55;;;16.90;72.60;;;;;;4806866;29;20467;-69
2021/10/07 12:47:15;;;;;;;1.08;0.57;;;16.90;72.60;;;;;;4809021;29;20101;-68
2021/10/07 12:49:50;;;;;;;2.42;0.75;;;16.90;72.60;;;;;;4808992;29;20065;-69
2021/10/07 12:52:21;;;;;;;1.73;0.50;;;16.90;72.60;;;;;;4808417;29;20069;-69
2021/10/07 12:54:51;;;;;;;1.77;0.77;;;16.90;72.60;;;;;;4790971;30;20065;-68
2021/10/07 12:57:38;;;;;;;1.80;0.80;;;16.90;72.60;;;;;;4790978;30;20427;-69
2021/10/07 13:00:07;;;;;;;1.33;0.50;;;16.90;72.60;;;;;;4791003;30;20349;-69
2021/10/07 13:02:33;;;;;;;1.10;0.50;;;16.90;72.70;;;;;;4790725;30;20059;-69
2021/10/07 13:05:16;;;;;;;2.42;0.80;;;16.90;72.60;;;;;;4790757;30;20447;-68
2021/10/07 13:07:42;;;;;;;4.75;1.00;;;16.90;72.60;;;;;;4791055;30;20376;-69
2021/10/07 13:10:08;;;;;;;2.65;0.60;;;16.90;72.70;;;;;;4790966;30;20130;-69
2021/10/07 13:12:34;;;;;;;3.45;0.60;;;16.90;72.80;;;;;;4790256;29;20577;-69
2021/10/07 13:14:59;;;;;;;1.60;0.50;;;16.90;72.80;;;;;;4790576;29;20059;-69
2021/10/07 13:17:26;;;;;;;1.80;0.60;;;16.90;72.90;;;;;;4790679;30;20062;-69
2021/10/07 13:19:52;;;;;;;1.35;0.63;;;16.80;72.90;;;;;;4790818;30;20594;-69
2021/10/07 13:22:18;;;;;;;3.35;0.80;;;16.90;73.10;;;;;;4790476;30;20134;-69
2021/10/07 13:24:43;;;;;;;2.47;0.55;;;16.80;73.10;;;;;;4790157;30;20131;-69
2021/10/07 13:27:11;;;;;;;2.42;0.65;;;16.80;73.30;;;;;;4790561;30;20059;-69
2021/10/07 13:29:38;;;;;;;2.42;0.70;;;16.80;73.30;;;;;;4790677;30;20128;-69
2021/10/07 13:32:05;;;;;;;2.33;0.82;;;16.80;73.40;;;;;;4790434;30;20043;-69
2021/10/07 13:34:30;;;;;;;12.05;0.93;;;16.80;74.10;;;;;;4789037;29;20437;-72
2021/10/07 13:36:56;;;;;;;8.35;1.50;;;16.90;73.60;;;;;;4791059;30;20063;-70
2021/10/07 13:39:22;;;;;;;4.55;1.35;;;16.90;73.70;;;;;;4790167;30;20153;-71
2021/10/07 13:41:48;;;;;;;5.07;2.38;;;16.90;73.90;;;;;;4790519;30;20059;-72
2021/10/07 13:44:17;;;;;;;5.80;2.47;;;16.90;73.90;;;;;;4791145;29;20103;-70
2021/10/07 13:46:43;;;;;;;5.18;1.98;;;17.00;74.00;;;;;;4790241;30;20541;-72
2021/10/07 13:49:08;;;;;;;5.10;2.20;;;17.00;74.20;;;;;;4790389;30;20047;-70
2021/10/07 13:51:34;;;;;;;6.88;1.98;;;17.00;74.20;;;;;;4790357;30;20452;-71
2021/10/07 13:54:00;;;;;;;7.63;1.52;;;17.10;74.10;;;;;;4798506;29;20054;-72
2021/10/07 13:56:26;;;;;;;3.05;1.25;;;17.30;73.90;;;;;;4808654;29;20061;-70
2021/10/07 13:58:52;;;;;;;5.00;1.10;;;17.50;73.60;;;;;;4808181;29;20454;-70
2021/10/07 14:01:18;;;;;;;5.35;0.93;;;17.60;73.30;;;;;;4792334;29;20058;-71
2021/10/07 14:03:44;;;;;;;5.35;1.15;;;17.70;73.10;;;;;;4789919;29;20113;-71
2021/10/07 14:06:11;;;;;;;6.43;1.23;;;17.80;72.90;;;;;;4790064;30;20055;-72
2021/10/07 14:08:37;;;;;;;3.15;1.17;;;17.90;72.70;;;;;;4789767;30;20074;-71
2021/10/07 14:11:07;;;;;;;7.35;1.30;;;17.90;72.60;;;;;;4789768;30;20063;-71
2021/10/07 14:13:37;;;;;;;4.05;1.00;;;18.00;72.60;;;;;;4805098;29;20058;-71
2021/10/07 14:16:04;;;;;;;5.60;1.20;;;18.00;72.50;;;;;;4807835;29;20395;-72
2021/10/07 14:18:31;;;;;;;5.80;0.98;;;18.00;72.60;;;;;;4807736;29;20180;-72
2021/10/07 14:20:57;;;;;;;6.57;1.23;;;18.00;72.60;;;;;;4807690;29;20082;-72
2021/10/07 14:23:23;;;;;;;7.97;1.05;;;18.00;72.70;;;;;;4807565;29;20054;-72
2021/10/07 14:25:49;;;;;;;4.13;0.93;;;18.00;72.80;;;;;;4807985;29;20129;-72
2021/10/07 14:28:15;;;;;;;4.07;1.17;;;18.00;72.90;;;;;;4792097;29;20047;-71
2021/10/07 14:30:41;;;;;;;4.13;0.75;;;18.00;72.90;;;;;;4808384;29;20062;-71
2021/10/07 14:33:07;;;;;;;7.53;1.00;;;18.10;72.90;;;;;;4807300;29;20079;-70
2021/10/07 14:35:33;;;;;;;3.35;0.77;;;18.10;73.00;;;;;;4804597;29;20063;-71
2021/10/07 14:37:59;;;;;;;8.75;1.30;;;18.10;73.10;;;;;;4807543;29;20054;-71
2021/10/07 14:40:25;;;;;;;5.93;1.23;;;18.10;73.20;;;;;;4807140;29;20363;-71
2021/10/07 14:42:52;;;;;;;7.95;1.40;;;18.10;73.20;;;;;;4805969;29;20379;-72
2021/10/07 14:45:19;;;;;;;9.05;1.02;;;18.10;73.20;;;;;;4807595;29;20065;-71
2021/10/07 14:47:45;;;;;;;7.13;1.13;;;18.10;73.20;;;;;;4809816;29;20362;-71
2021/10/07 14:50:11;;;;;;;8.45;1.23;;;18.10;73.20;;;;;;4794256;29;20054;-69
2021/10/07 14:52:37;;;;;;;5.97;1.60;;;18.20;73.00;;;;;;4803803;29;20055;-71
2021/10/07 14:55:06;;;;;;;5.97;0.88;;;18.30;73.20;;;;;;4792402;30;20070;-72
2021/10/07 14:57:32;;;;;;;7.95;1.10;;;18.30;73.00;;;;;;4792955;30;20141;-70
2021/10/07 14:59:58;;;;;;;4.75;0.80;;;18.50;72.80;;;;;;4792388;30;20215;-70
2021/10/07 15:02:23;;;;;;;7.30;1.10;;;18.60;72.60;;;;;;4802258;29;20062;-70
2021/10/07 15:04:49;;;;;;;8.20;1.30;;;18.70;72.50;;;;;;4809581;29;20355;-71
2021/10/07 15:07:15;;;;;;;3.72;0.63;;;18.70;72.30;;;;;;4810950;29;20093;-70
2021/10/07 15:09:41;;;;;;;8.43;1.17;;;18.80;72.30;;;;;;4811101;29;20436;-69
2021/10/07 15:12:07;;;;;;;10.15;1.40;;;18.80;72.30;;;;;;4810840;29;20123;-69
2021/10/07 15:14:33;;;;;;;5.65;1.60;;;18.90;72.00;;;;;;4810522;29;20053;-71
2021/10/07 15:17:01;;;;;;;8.43;1.52;;;19.00;71.70;;;;;;4810681;29;20363;-69
2021/10/07 15:19:26;;;;;;;4.57;0.88;;;19.00;71.80;;;;;;4810593;29;20098;-69
2021/10/07 15:21:52;;;;;;;3.45;0.88;;;19.00;71.80;;;;;;4794396;29;20126;-69
2021/10/07 15:24:18;;;;;;;4.35;1.20;;;19.00;71.90;;;;;;4810480;29;20058;-70
2021/10/07 15:26:45;;;;;;;7.28;1.20;;;19.00;71.80;;;;;;4810306;29;20132;-70
2021/10/07 15:29:11;;;;;;;6.72;1.50;;;19.00;71.80;;;;;;4810516;29;20127;-70
2021/10/07 15:31:36;;;;;;;5.25;2.67;;;19.00;71.70;;;;;;4810286;29;20046;-70
2021/10/07 15:34:02;;;;;;;5.25;2.60;;;18.90;71.40;;;;;;4809622;29;20066;-70
2021/10/07 15:36:28;;;;;;;5.43;2.30;;;18.90;71.10;;;;;;4809824;29;20058;-71
2021/10/07 15:38:53;;;;;;;3.38;1.73;;;18.80;71.10;;;;;;4810394;29;20047;-70
2021/10/07 15:41:19;;;;;;;5.75;2.17;;;18.80;71.20;;;;;;4810138;29;20434;-69
2021/10/07 15:43:45;;;;;;;4.88;1.40;;;18.80;71.30;;;;;;4809891;29;20054;-69
2021/10/07 15:46:11;;;;;;;5.35;1.40;;;18.80;71.30;;;;;;4810128;29;20415;-69
2021/10/07 15:48:37;;;;;;;4.13;1.40;;;18.80;71.20;;;;;;4809974;29;20051;-69
2021/10/07 15:51:03;;;;;;;3.08;1.15;;;18.80;71.10;;;;;;4809971;29;20051;-70
2021/10/07 15:53:29;;;;;;;4.30;1.55;;;18.90;71.10;;;;;;4809449;29;20138;-70
2021/10/07 15:55:54;;;;;;;5.72;1.25;;;18.90;71.10;;;;;;4794276;29;20086;-71
2021/10/07 15:58:20;;;;;;;5.15;1.65;;;18.90;71.10;;;;;;4793199;29;20051;-70
2021/10/07 16:00:48;;;;;;;5.32;2.60;;;18.90;71.10;;;;;;4793987;29;20063;-70
2021/10/07 16:03:14;;;;;;;4.35;2.20;;;18.90;70.70;;;;;;4809332;29;20050;-70
2021/10/07 16:05:39;;;;;;;6.95;2.15;;;18.90;70.60;;;;;;4809600;29;20050;-69
2021/10/07 16:08:05;;;;;;;5.72;1.75;;;18.80;70.50;;;;;;4809780;29;20138;-70
2021/10/07 16:10:31;;;;;;;5.93;1.48;;;18.80;70.50;;;;;;4793740;29;20050;-72
2021/10/07 16:13:00;;;;;;;8.63;1.73;;;18.80;70.60;;;;;;4809306;29;20120;-70
2021/10/07 16:15:26;;;;;;;9.32;1.48;;;18.80;70.80;;;;;;4809593;29;20065;-73
2021/10/07 16:17:51;;;;;;;8.43;4.90;;;18.80;70.90;;;;;;4807238;29;20047;-71
2021/10/07 16:20:17;;;;;;;8.07;4.88;;;18.80;70.50;;;;;;4808601;29;20051;-68
2021/10/07 16:22:43;;;;;;;7.88;4.15;;;18.80;70.20;;;;;;4809528;29;20362;-70
2021/10/07 16:25:09;;;;;;;7.88;4.20;;;18.60;69.60;;;;;;4809636;29;20132;-69
2021/10/07 16:27:35;;;;;;;8.82;3.88;;;18.60;70.10;;;;;;4809691;29;20051;-70
2021/10/07 16:30:01;;;;;;;6.07;3.30;;;18.60;70.20;;;;;;4809292;29;20111;-70
2021/10/07 16:32:28;;;;;;;8.35;3.70;;;18.60;70.40;;;;;;4809309;29;20451;-69
2021/10/07 16:34:53;;;;;;;7.22;3.40;;;18.70;70.60;;;;;;4809111;29;20139;-70
2021/10/07 16:37:19;;;;;;;11.60;3.55;;;18.70;71.00;;;;;;4809282;29;20051;-70
2021/10/07 16:39:45;;;;;;;6.72;3.00;;;18.70;71.20;;;;;;4809467;29;20055;-70
2021/10/07 16:42:11;;;;;;;8.70;3.08;;;18.70;71.40;;;;;;4809182;29;20137;-70
2021/10/07 16:44:37;;;;;;;8.15;2.47;;;18.80;71.60;;;;;;4809044;29;20137;-70
2021/10/07 16:47:03;;;;;;;6.97;2.85;;;18.80;71.80;;;;;;4808900;29;20141;-68
2021/10/07 16:49:29;;;;;;;7.45;2.10;;;18.80;71.80;;;;;;4809510;29;20054;-68
2021/10/07 16:51:56;;;;;;;10.88;2.65;;;18.80;71.90;;;;;;4809032;29;20050;-68
2021/10/07 16:54:23;;;;;;;10.00;2.38;;;18.80;72.10;;;;;;4793462;29;20054;-68
2021/10/07 16:56:49;;;;;;;5.18;1.95;;;18.80;72.20;;;;;;4802342;29;20058;-69
2021/10/07 16:59:15;;;;;;;8.35;2.08;;;18.80;72.40;;;;;;4803870;29;20380;-68
2021/10/07 17:01:41;;;;;;;4.93;2.30;;;18.70;72.40;;;;;;4808829;29;20059;-68
2021/10/07 17:04:07;;;;;;;4.50;2.10;;;18.70;72.60;;;;;;4808703;29;20050;-68
2021/10/07 17:06:32;;;;;;;5.50;2.75;;;18.70;72.80;;;;;;4808640;29;20113;-68
2021/10/07 17:09:00;;;;;;;8.45;2.72;;;18.60;72.90;;;;;;4808422;29;20061;-68
2021/10/07 17:11:26;;;;;;;6.78;2.40;;;18.60;72.80;;;;;;4793247;29;20425;-68
2021/10/07 17:13:51;;;;;;;10.75;2.45;;;18.60;73.20;;;;;;4808934;29;20058;-68
2021/10/07 17:16:17;;;;;;;11.52;2.80;;;18.60;73.30;;;;;;4808304;29;20109;-68
2021/10/07 17:18:43;;;;;;;8.93;2.47;;;18.60;74.00;;;;;;4808502;29;20063;-69
2021/10/07 17:21:09;;;;;;;12.00;2.35;;;18.50;73.50;;;;;;4808659;29;20451;-68
2021/10/07 17:23:34;;;;;;;12.63;2.40;;;18.50;73.80;;;;;;4808641;29;20066;-68
2021/10/07 17:26:00;;;;;;;11.35;2.63;;;18.50;74.00;;;;;;4808876;29;20050;-69
2021/10/07 17:28:26;;;;;;;6.00;2.55;;;18.40;74.00;;;;;;4808317;29;20454;-68
2021/10/07 17:30:52;;;;;;;11.27;2.58;;;18.40;74.00;;;;;;4807936;29;20051;-68
2021/10/07 17:33:17;;;;;;;8.88;2.80;;;18.40;73.40;;;;;;4808943;29;20082;-68
2021/10/07 17:35:43;;;;;;;9.93;2.78;;;18.40;73.80;;;;;;4807083;29;20101;-69
2021/10/07 17:38:09;;;;;;;15.40;2.78;;;18.40;74.10;;;;;;4808338;29;20063;-68
2021/10/07 17:40:35;;;;;;;13.10;2.63;;;18.40;74.30;;;;;;4808355;29;20126;-68
2021/10/07 17:43:00;;;;;;;11.77;3.10;;;18.40;73.80;;;;;;4808206;29;20191;-68
2021/10/07 17:45:26;;;;;;;11.32;2.72;;;18.40;74.10;;;;;;4808112;29;20051;-68
2021/10/07 17:47:52;;;;;;;11.52;2.42;;;18.40;74.10;;;;;;4808514;29;20427;-68
2021/10/07 17:50:18;;;;;;;9.70;2.58;;;18.30;74.00;;;;;;4808400;29;20051;-68
2021/10/07 17:52:44;;;;;;;7.05;2.22;;;18.30;74.00;;;;;;4808368;29;20069;-68
2021/10/07 17:55:12;;;;;;;12.10;3.50;;;18.30;73.60;;;;;;4808031;29;20443;-68
2021/10/07 17:57:39;;;;;;;12.52;4.15;;;18.20;72.70;;;;;;4807999;29;20050;-68
2021/10/07 18:00:07;;;;;;;12.50;4.10;;;18.00;72.20;;;;;;4805837;29;20051;-68
2021/10/07 18:02:33;;;;;;;15.25;3.00;;;17.80;72.30;;;;;;4807707;29;20062;-68
2021/10/07 18:04:58;;;;;;;12.70;3.33;;;17.80;72.90;;;;;;4807770;29;20046;-68
2021/10/07 18:07:24;;;;;;;9.65;3.28;;;17.70;73.00;;;;;;4807736;29;20153;-68
2021/10/07 18:09:51;;;;;;;7.78;2.42;;;17.60;73.30;;;;;;4808337;29;20082;-68
2021/10/07 18:12:16;;;;;;;10.73;3.28;;;17.50;73.60;;;;;;4808410;29;20051;-68
2021/10/07 18:14:42;;;;;;;11.90;3.72;;;17.60;74.00;;;;;;4808003;29;20123;-68
2021/10/07 18:17:08;;;;;;;13.73;5.20;;;17.60;74.00;;;;;;4808046;29;20039;-68
2021/10/07 18:19:34;;;;;;;10.82;3.53;;;17.50;73.60;;;;;;4807767;29;20074;-68
2021/10/07 18:22:00;;;;;;;7.93;3.47;;;17.50;73.80;;;;;;4810484;29;20141;-68
2021/10/07 18:24:27;;;;;;;9.05;3.83;;;17.50;74.00;;;;;;4811893;29;20057;-68
2021/10/07 18:26:54;;;;;;;7.13;3.50;;;17.40;74.00;;;;;;4811568;29;20071;-68
2021/10/07 18:29:20;;;;;;;6.15;3.40;;;17.50;74.20;;;;;;4811527;29;20120;-68
2021/10/07 18:31:48;;;;;;;7.28;3.20;;;17.40;74.20;;;;;;4810901;29;20051;-68
2021/10/07 18:34:18;;;;;;;5.72;3.80;;;17.40;74.30;;;;;;4811186;29;20063;-68
2021/10/07 18:36:47;;;;;;;10.48;4.20;;;17.40;74.50;;;;;;4811729;29;20190;-67
2021/10/07 18:39:13;;;;;;;6.88;4.10;;;17.40;74.50;;;;;;4811486;29;20058;-68
2021/10/07 18:41:43;;;;;;;10.38;4.00;;;17.40;74.60;;;;;;4811289;29;20066;-68
2021/10/07 18:44:14;;;;;;;9.70;3.78;;;17.40;74.50;;;;;;4811727;29;20047;-67
2021/10/07 18:46:40;;;;;;;9.63;4.28;;;17.50;74.50;;;;;;4811313;29;20112;-66
2021/10/07 18:49:06;;;;;;;6.68;3.63;;;17.50;74.50;;;;;;4811268;29;20387;-68
2021/10/07 18:51:32;;;;;;;6.72;3.53;;;17.50;74.70;;;;;;4811261;29;20057;-67
2021/10/07 18:54:02;;;;;;;7.50;3.47;;;17.50;74.80;;;;;;4794963;29;20127;-67
2021/10/07 18:56:35;;;;;;;6.43;3.70;;;17.40;75.00;;;;;;4810795;29;20062;-67
2021/10/07 18:59:03;;;;;;;7.97;3.90;;;17.40;75.10;;;;;;4814810;29;20147;-67
2021/10/07 19:01:29;;;;;;;5.75;4.05;;;17.40;75.20;;;;;;4828625;29;20089;-67
2021/10/07 19:03:58;;;;;;;6.88;4.20;;;17.40;75.40;;;;;;4828907;29;20050;-68
2021/10/07 19:06:25;;;;;;;4.80;3.60;;;17.40;75.70;;;;;;4828643;29;20058;-67
2021/10/07 19:08:51;;;;;;;8.27;3.80;;;17.40;75.60;;;;;;4828582;29;20093;-67
2021/10/07 19:11:17;;;;;;;6.15;3.67;;;17.40;75.50;;;;;;4829030;29;20076;-67
2021/10/07 19:13:43;;;;;;;6.22;3.50;;;17.40;75.60;;;;;;4812827;29;20437;-67
2021/10/07 19:16:08;;;;;;;5.53;4.18;;;17.40;75.60;;;;;;4828461;29;20085;-67
2021/10/07 19:18:34;;;;;;;6.55;4.25;;;17.40;75.60;;;;;;4828659;29;20141;-66
2021/10/07 19:21:00;;;;;;;5.90;3.70;;;17.40;75.50;;;;;;4828697;29;20515;-67
2021/10/07 19:23:26;;;;;;;5.95;3.78;;;17.40;75.50;;;;;;4828382;29;20438;-67
2021/10/07 19:25:52;;;;;;;4.82;3.42;;;17.40;76.00;;;;;;4828570;29;20140;-67